createdAt,value
2019-05-19T00:00:48.584Z,3.27
2019-05-19T00:03:17.262Z,3.05
2019-05-19T00:05:46.086Z,3.00
2019-05-19T00:08:14.848Z,2.75
2019-05-19T00:10:43.652Z,2.90
2019-05-19T00:13:12.401Z,3.00
2019-05-19T00:15:41.137Z,2.80
2019-05-19T00:18:09.886Z,3.00
2019-05-19T00:20:38.671Z,2.95
2019-05-19T00:23:07.374Z,2.90
2019-05-19T00:25:36.191Z,2.70
2019-05-19T00:28:04.949Z,2.65
2019-05-19T00:30:33.694Z,2.90
2019-05-19T00:33:02.525Z,3.12
2019-05-19T00:35:31.357Z,2.90
2019-05-19T00:38:00.214Z,2.58
2019-05-19T00:40:28.973Z,2.92
2019-05-19T00:42:57.774Z,2.58
2019-05-19T00:45:26.532Z,3.17
2019-05-19T00:47:55.340Z,2.80
2019-05-19T00:50:24.093Z,2.90
2019-05-19T00:52:52.899Z,3.00
2019-05-19T00:55:21.740Z,2.90
2019-05-19T00:57:51.167Z,2.70
2019-05-19T01:02:48.646Z,2.65
2019-05-19T01:05:20.198Z,2.58
2019-05-19T01:07:47.766Z,2.72
2019-05-19T01:10:16.509Z,3.40
2019-05-19T01:12:45.249Z,3.12
2019-05-19T01:15:14.398Z,2.85
2019-05-19T01:17:43.142Z,3.08
2019-05-19T01:20:12.070Z,3.00
2019-05-19T01:22:40.900Z,3.30
2019-05-19T01:25:09.946Z,2.60
2019-05-19T01:27:38.741Z,2.58
2019-05-19T01:30:11.233Z,3.08
2019-05-19T01:32:39.976Z,3.00
2019-05-19T01:35:08.822Z,2.77
2019-05-19T01:37:37.561Z,2.50
2019-05-19T01:40:08.330Z,2.92
2019-05-19T01:42:37.235Z,3.08
2019-05-19T01:45:10.131Z,3.60
2019-05-19T01:47:38.950Z,3.05
2019-05-19T01:50:17.437Z,2.60
2019-05-19T01:52:39.657Z,3.20
2019-05-19T01:55:08.554Z,2.85
2019-05-19T01:57:37.321Z,3.08
2019-05-19T02:00:07.650Z,3.37
2019-05-19T02:02:36.374Z,2.90
2019-05-19T02:05:06.594Z,2.98
2019-05-19T02:07:35.475Z,3.40
2019-05-19T02:10:06.859Z,2.90
2019-05-19T02:12:35.607Z,3.05
2019-05-19T02:15:06.420Z,3.15
2019-05-19T02:17:35.158Z,3.00
2019-05-19T02:20:05.649Z,2.90
2019-05-19T02:22:34.458Z,3.20
2019-05-19T02:25:03.472Z,3.00
2019-05-19T02:27:32.149Z,3.00
2019-05-19T02:30:00.962Z,2.70
2019-05-19T02:32:29.629Z,3.00
2019-05-19T02:34:58.459Z,2.80
2019-05-19T02:37:27.204Z,3.12
2019-05-19T02:39:56.049Z,2.98
2019-05-19T02:42:28.306Z,3.33
2019-05-19T02:44:59.178Z,3.17
2019-05-19T02:47:28.392Z,3.45
2019-05-19T02:49:58.314Z,2.92
2019-05-19T02:52:28.143Z,2.60
2019-05-19T02:54:57.165Z,3.00
2019-05-19T02:57:26.105Z,3.30
2019-05-19T02:59:55.316Z,3.00
2019-05-19T03:02:24.036Z,2.92
2019-05-19T03:04:52.850Z,3.27
2019-05-19T03:07:21.595Z,3.08
2019-05-19T03:09:50.365Z,3.22
2019-05-19T03:12:19.178Z,3.22
2019-05-19T03:14:47.896Z,4.35
2019-05-19T03:17:16.758Z,2.83
2019-05-19T03:19:45.426Z,2.95
2019-05-19T03:22:14.162Z,2.95
2019-05-19T03:24:42.852Z,3.02
2019-05-19T03:27:11.675Z,2.90
2019-05-19T03:29:41.994Z,3.75
2019-05-19T03:32:13.158Z,2.77
2019-05-19T03:34:42.219Z,3.35
2019-05-19T03:37:10.967Z,2.90
2019-05-19T03:39:39.730Z,3.15
2019-05-19T03:42:10.597Z,3.30
2019-05-19T03:44:38.857Z,3.40
2019-05-19T03:47:07.631Z,3.00
2019-05-19T03:49:36.275Z,3.42
2019-05-19T03:52:05.130Z,3.15
2019-05-19T03:54:33.806Z,3.10
2019-05-19T03:57:02.560Z,3.10
2019-05-19T03:59:31.230Z,3.50
2019-05-19T04:01:59.978Z,3.08
2019-05-19T04:04:28.726Z,3.17
2019-05-19T04:06:57.492Z,2.65
2019-05-19T04:09:26.592Z,3.12
2019-05-19T04:11:55.325Z,2.95
2019-05-19T04:14:24.078Z,3.27
2019-05-19T04:16:52.831Z,3.02
2019-05-19T04:19:21.562Z,3.30
2019-05-19T04:21:50.312Z,3.12
2019-05-19T04:24:19.064Z,3.22
2019-05-19T04:26:47.804Z,3.00
2019-05-19T04:29:16.476Z,4.15
2019-05-19T04:31:45.168Z,3.40
2019-05-19T04:34:13.891Z,3.08
2019-05-19T04:36:42.572Z,3.10
2019-05-19T04:39:11.303Z,3.22
2019-05-19T04:41:40.431Z,3.05
2019-05-19T04:44:09.307Z,3.55
2019-05-19T04:46:37.979Z,3.22
2019-05-19T04:49:06.811Z,3.20
2019-05-19T04:51:35.506Z,3.10
2019-05-19T04:54:04.314Z,3.35
2019-05-19T04:56:33.063Z,3.95
2019-05-19T04:59:01.817Z,3.05
2019-05-19T05:01:30.502Z,3.40
2019-05-19T05:03:59.252Z,3.42
2019-05-19T05:06:27.995Z,4.55
2019-05-19T05:08:56.748Z,3.02
2019-05-19T05:11:25.497Z,3.62
2019-05-19T05:13:54.313Z,3.72
2019-05-19T05:16:22.980Z,3.92
2019-05-19T05:18:51.746Z,3.75
2019-05-19T05:21:20.387Z,3.12
2019-05-19T05:23:49.211Z,3.40
2019-05-19T05:26:17.896Z,3.12
2019-05-19T05:28:46.626Z,3.42
2019-05-19T05:31:15.711Z,3.72
2019-05-19T05:33:44.523Z,3.20
2019-05-19T05:36:13.201Z,3.08
2019-05-19T05:38:41.932Z,3.15
2019-05-19T05:41:10.622Z,3.25
2019-05-19T05:43:39.375Z,3.70
2019-05-19T05:46:08.128Z,3.98
2019-05-19T05:48:36.945Z,3.30
2019-05-19T05:51:05.733Z,3.02
2019-05-19T05:53:34.406Z,4.10
2019-05-19T05:56:03.147Z,4.08
2019-05-19T05:58:31.825Z,3.40
2019-05-19T06:01:00.559Z,3.60
2019-05-19T06:03:29.321Z,3.20
2019-05-19T06:05:58.138Z,3.55
2019-05-19T06:08:26.982Z,3.50
2019-05-19T06:10:55.791Z,3.72
2019-05-19T06:13:24.487Z,3.90
2019-05-19T06:15:53.286Z,3.37
2019-05-19T06:18:22.036Z,4.60
2019-05-19T06:20:50.818Z,3.90
2019-05-19T06:23:19.488Z,3.37
2019-05-19T06:25:48.323Z,3.30
2019-05-19T06:28:17.130Z,3.60
2019-05-19T06:30:45.877Z,3.20
2019-05-19T06:33:14.567Z,3.87
2019-05-19T06:35:43.381Z,3.65
2019-05-19T06:38:12.192Z,4.47
2019-05-19T06:40:40.954Z,4.62
2019-05-19T06:43:09.692Z,3.90
2019-05-19T06:45:38.457Z,3.87
2019-05-19T06:48:07.204Z,3.70
2019-05-19T06:50:39.923Z,3.72
2019-05-19T06:53:14.132Z,3.72
2019-05-19T06:55:36.892Z,2.98
2019-05-19T06:58:05.639Z,3.72
2019-05-19T07:00:34.474Z,3.95
2019-05-19T07:03:03.286Z,3.00
2019-05-19T07:05:32.027Z,2.87
2019-05-19T07:08:00.839Z,3.35
2019-05-19T07:10:29.520Z,2.77
2019-05-19T07:12:58.294Z,3.37
2019-05-19T07:15:27.018Z,2.42
2019-05-19T07:17:55.762Z,3.15
2019-05-19T07:20:24.532Z,2.83
2019-05-19T07:22:53.261Z,2.98
2019-05-19T07:25:21.922Z,2.75
2019-05-19T07:27:50.681Z,2.67
2019-05-19T07:30:19.591Z,2.55
2019-05-19T07:32:48.421Z,3.15
2019-05-19T07:35:17.093Z,2.83
2019-05-19T07:37:45.846Z,2.80
2019-05-19T07:40:14.699Z,2.62
2019-05-19T07:42:43.446Z,3.02
2019-05-19T07:45:13.486Z,4.58
2019-05-19T07:47:42.227Z,2.52
2019-05-19T07:50:11.023Z,2.30
2019-05-19T07:52:39.823Z,2.35
2019-05-19T07:55:08.715Z,3.05
2019-05-19T07:57:37.462Z,2.90
2019-05-19T08:00:09.338Z,3.17
2019-05-19T08:02:38.325Z,3.15
2019-05-19T08:05:08.522Z,2.62
2019-05-19T08:07:37.508Z,2.75
2019-05-19T08:10:06.995Z,2.87
2019-05-19T08:12:35.736Z,3.70
2019-05-19T08:15:06.317Z,3.08
2019-05-19T08:17:35.140Z,3.65
2019-05-19T08:20:05.883Z,3.27
2019-05-19T08:22:34.731Z,2.50
2019-05-19T08:25:04.363Z,2.20
2019-05-19T08:27:33.115Z,2.40
2019-05-19T08:30:01.782Z,2.87
2019-05-19T08:32:30.570Z,2.60
2019-05-19T08:34:59.255Z,2.77
2019-05-19T08:37:28.014Z,2.65
2019-05-19T08:39:56.681Z,2.58
2019-05-19T08:42:25.505Z,2.52
2019-05-19T08:44:54.246Z,2.20
2019-05-19T08:47:23.001Z,2.58
2019-05-19T08:49:51.690Z,3.25
2019-05-19T08:52:20.443Z,3.45
2019-05-19T08:54:49.133Z,2.67
2019-05-19T08:57:17.874Z,2.27
2019-05-19T08:59:46.622Z,2.65
2019-05-19T09:02:15.371Z,2.80
2019-05-19T09:04:44.042Z,2.42
2019-05-19T09:07:12.767Z,2.58
2019-05-19T09:09:41.526Z,2.52
2019-05-19T09:12:10.343Z,2.90
2019-05-19T09:14:39.031Z,3.20
2019-05-19T09:17:07.774Z,2.30
2019-05-19T09:19:36.517Z,2.58
2019-05-19T09:22:05.346Z,2.12
2019-05-19T09:24:37.191Z,2.30
2019-05-19T09:27:04.483Z,1.98
2019-05-19T09:29:33.231Z,2.02
2019-05-19T09:32:02.021Z,2.22
2019-05-19T09:34:30.784Z,2.25
2019-05-19T09:36:59.589Z,2.42
2019-05-19T09:39:28.337Z,2.05
2019-05-19T09:41:57.091Z,3.27
2019-05-19T09:44:25.830Z,2.00
2019-05-19T09:46:54.573Z,2.27
2019-05-19T09:49:32.955Z,1.90
2019-05-19T09:52:02.795Z,2.37
2019-05-19T09:54:44.100Z,2.70
2019-05-19T09:57:02.104Z,2.17
2019-05-19T09:59:30.846Z,2.52
2019-05-19T10:01:59.682Z,2.15
2019-05-19T10:04:28.498Z,1.92
2019-05-19T10:06:57.278Z,1.95
2019-05-19T10:09:30.747Z,1.92
2019-05-19T10:12:02.039Z,1.85
2019-05-19T10:14:30.856Z,2.42
2019-05-19T10:19:27.509Z,3.42
2019-05-19T10:21:56.324Z,2.50
2019-05-19T10:24:25.380Z,2.22
2019-05-19T10:26:54.209Z,2.35
2019-05-19T10:29:23.038Z,2.25
2019-05-19T10:31:54.400Z,2.02
2019-05-19T10:34:22.367Z,2.95
2019-05-19T10:36:51.230Z,2.25
2019-05-19T10:39:19.856Z,3.02
2019-05-19T10:44:16.564Z,1.85
2019-05-19T10:46:45.339Z,1.80
2019-05-19T10:49:14.075Z,2.33
2019-05-19T10:51:42.898Z,2.60
2019-05-19T10:54:11.636Z,2.30
2019-05-19T10:56:40.382Z,1.90
2019-05-19T10:59:09.131Z,1.80
2019-05-19T11:01:37.886Z,2.30
2019-05-19T11:04:06.713Z,2.20
2019-05-19T11:06:35.454Z,2.12
2019-05-19T11:09:06.198Z,1.80
2019-05-19T11:11:35.014Z,1.90
2019-05-19T11:14:03.753Z,2.33
2019-05-19T11:16:32.505Z,2.00
2019-05-19T11:19:01.240Z,2.17
2019-05-19T11:21:29.907Z,2.40
2019-05-19T11:23:58.643Z,2.00
2019-05-19T11:26:27.477Z,2.15
2019-05-19T11:28:56.225Z,3.05
2019-05-19T11:31:24.915Z,2.65
2019-05-19T11:33:53.657Z,2.35
2019-05-19T11:36:22.462Z,2.15
2019-05-19T11:38:51.239Z,2.33
2019-05-19T11:41:20.065Z,3.25
2019-05-19T11:43:48.791Z,3.02
2019-05-19T11:46:17.540Z,2.58
2019-05-19T11:48:46.277Z,2.40
2019-05-19T11:51:15.022Z,3.00
2019-05-19T11:53:43.755Z,2.90
2019-05-19T11:56:12.434Z,2.27
2019-05-19T11:58:41.163Z,2.27
2019-05-19T12:01:09.911Z,2.58
2019-05-19T12:03:38.658Z,2.58
2019-05-19T12:06:07.307Z,2.10
2019-05-19T12:08:36.066Z,2.77
2019-05-19T12:11:04.790Z,3.05
2019-05-19T12:13:35.058Z,5.15
2019-05-19T12:16:04.090Z,3.75
2019-05-19T12:18:32.825Z,2.45
2019-05-19T12:21:01.587Z,2.27
2019-05-19T12:23:30.402Z,2.45
2019-05-19T12:25:59.127Z,2.33
2019-05-19T12:28:28.131Z,2.40
2019-05-19T12:30:56.878Z,2.25
2019-05-19T12:33:25.701Z,2.60
2019-05-19T12:35:54.443Z,2.85
2019-05-19T12:38:23.103Z,2.52
2019-05-19T12:40:51.839Z,2.87
2019-05-19T12:43:20.657Z,3.22
2019-05-19T12:45:49.507Z,2.20
2019-05-19T12:48:18.330Z,2.58
2019-05-19T12:50:47.068Z,2.62
2019-05-19T12:53:15.741Z,2.60
2019-05-19T12:55:44.482Z,2.42
2019-05-19T12:58:13.166Z,3.02
2019-05-19T13:00:41.913Z,2.77
2019-05-19T13:03:10.680Z,2.50
2019-05-19T13:05:39.432Z,3.33
2019-05-19T13:08:11.371Z,2.70
2019-05-19T13:10:38.654Z,2.30
2019-05-19T13:13:08.188Z,2.35
2019-05-19T13:15:37.006Z,2.10
2019-05-19T13:18:05.753Z,3.12
2019-05-19T13:20:34.507Z,2.10
2019-05-19T13:23:03.170Z,2.10
2019-05-19T13:25:31.913Z,2.35
2019-05-19T13:28:00.598Z,2.15
2019-05-19T13:30:29.405Z,4.20
2019-05-19T13:32:58.222Z,2.67
2019-05-19T13:35:27.030Z,2.92
2019-05-19T13:37:55.708Z,2.45
2019-05-19T13:40:24.530Z,2.40
2019-05-19T13:42:53.253Z,1.90
2019-05-19T13:45:22.219Z,2.83
2019-05-19T13:47:51.022Z,2.62
2019-05-19T13:50:20.264Z,1.90
2019-05-19T13:52:51.202Z,2.47
2019-05-19T13:55:19.418Z,2.10
2019-05-19T13:57:48.199Z,2.05
2019-05-19T14:00:17.926Z,2.10
2019-05-19T14:02:46.754Z,2.15
2019-05-19T14:05:15.601Z,2.27
2019-05-19T14:07:44.331Z,2.10
2019-05-19T14:10:13.966Z,2.20
2019-05-19T14:12:42.706Z,2.40
2019-05-19T14:15:11.517Z,2.47
2019-05-19T14:17:40.270Z,3.22
2019-05-19T14:20:09.286Z,2.50
2019-05-19T14:22:38.074Z,2.27
2019-05-19T14:25:06.924Z,2.22
2019-05-19T14:27:35.740Z,2.47
2019-05-19T14:30:06.280Z,2.10
2019-05-19T14:32:35.020Z,2.30
2019-05-19T14:35:04.751Z,2.05
2019-05-19T14:37:33.505Z,2.40
2019-05-19T14:40:02.402Z,2.22
2019-05-19T14:42:49.015Z,2.17
2019-05-19T14:45:17.846Z,2.10
2019-05-19T14:47:46.592Z,2.20
2019-05-19T14:50:15.337Z,2.40
2019-05-19T14:52:44.085Z,3.05
2019-05-19T14:55:12.920Z,1.87
2019-05-19T14:57:45.300Z,2.10
2019-05-19T15:00:13.886Z,2.30
2019-05-19T15:02:42.694Z,2.80
2019-05-19T15:05:11.815Z,2.42
2019-05-19T15:07:40.550Z,2.55
2019-05-19T15:10:09.866Z,2.50
2019-05-19T15:12:38.584Z,2.00
2019-05-19T15:15:10.632Z,2.30
2019-05-19T15:17:39.308Z,2.20
2019-05-19T15:20:10.229Z,2.20
2019-05-19T15:22:39.001Z,1.92
2019-05-19T15:25:08.413Z,2.27
2019-05-19T15:27:37.339Z,2.33
2019-05-19T15:30:12.867Z,2.30
2019-05-19T15:32:38.362Z,2.20
2019-05-19T15:35:07.168Z,2.33
2019-05-19T15:37:35.917Z,2.60
2019-05-19T15:40:10.141Z,2.30
2019-05-19T15:42:38.908Z,2.92
2019-05-19T15:45:09.108Z,2.35
2019-05-19T15:47:37.838Z,2.05
2019-05-19T15:50:07.954Z,2.35
2019-05-19T15:52:36.698Z,2.10
2019-05-19T15:55:06.417Z,2.00
2019-05-19T15:57:35.364Z,2.30
2019-05-19T16:00:06.278Z,2.17
2019-05-19T16:02:35.096Z,2.02
2019-05-19T16:05:04.992Z,2.20
2019-05-19T16:07:33.827Z,1.77
2019-05-19T16:10:02.996Z,2.00
2019-05-19T16:12:31.912Z,2.37
2019-05-19T16:15:00.664Z,2.33
2019-05-19T16:17:29.431Z,2.20
2019-05-19T16:19:58.175Z,2.30
2019-05-19T16:22:26.839Z,2.20
2019-05-19T16:24:55.527Z,2.77
2019-05-19T16:27:24.350Z,2.27
2019-05-19T16:29:53.022Z,2.50
2019-05-19T16:32:21.757Z,2.30
2019-05-19T16:34:50.529Z,2.40
2019-05-19T16:37:19.329Z,2.30
2019-05-19T16:39:48.017Z,2.20
2019-05-19T16:42:16.819Z,3.37
2019-05-19T16:44:45.497Z,3.10
2019-05-19T16:47:14.314Z,2.45
2019-05-19T16:49:43.015Z,2.60
2019-05-19T16:52:11.833Z,2.65
2019-05-19T16:54:42.715Z,2.75
2019-05-19T16:57:11.643Z,3.70
2019-05-19T16:59:40.374Z,3.20
2019-05-19T17:02:09.191Z,3.90
2019-05-19T17:04:37.933Z,4.05
2019-05-19T17:07:06.687Z,3.22
2019-05-19T17:09:35.417Z,3.50
2019-05-19T17:12:06.783Z,3.70
2019-05-19T17:14:34.644Z,3.83
2019-05-19T17:17:03.383Z,3.55
2019-05-19T17:19:32.073Z,3.65
2019-05-19T17:22:00.803Z,3.25
2019-05-19T17:24:29.474Z,4.37
2019-05-19T17:26:58.294Z,4.08
2019-05-19T17:29:26.969Z,2.65
2019-05-19T17:32:05.657Z,2.42
2019-05-19T17:34:26.099Z,3.05
2019-05-19T17:36:54.842Z,2.08
2019-05-19T17:39:23.602Z,2.77
2019-05-19T17:41:52.349Z,2.62
2019-05-19T17:44:21.167Z,2.52
2019-05-19T17:46:49.998Z,3.20
2019-05-19T17:49:18.810Z,4.62
2019-05-19T17:51:49.263Z,3.52
2019-05-19T17:54:20.169Z,2.80
2019-05-19T17:56:49.883Z,2.72
2019-05-19T17:59:18.794Z,2.75
2019-05-19T18:01:47.635Z,2.87
2019-05-19T18:04:16.505Z,2.90
2019-05-19T18:06:45.335Z,3.17
2019-05-19T18:09:14.227Z,3.40
2019-05-19T18:11:43.099Z,3.10
2019-05-19T18:14:11.925Z,3.67
2019-05-19T18:16:40.626Z,3.75
2019-05-19T18:19:09.362Z,3.40
2019-05-19T18:21:39.299Z,3.70
2019-05-19T18:24:08.127Z,3.37
2019-05-19T18:26:36.881Z,2.95
2019-05-19T18:29:05.724Z,5.28
2019-05-19T18:31:34.481Z,5.45
2019-05-19T18:34:03.315Z,4.58
2019-05-19T18:36:32.082Z,7.00
2019-05-19T18:39:00.845Z,8.18
2019-05-19T18:43:58.148Z,6.60
2019-05-19T18:48:56.038Z,6.33
2019-05-19T18:51:24.826Z,6.58
2019-05-19T18:56:24.413Z,5.60
